sensor_id;sensor_type;location;lat;lon;timestamp;P1;durP1;ratioP1;P2;durP2;ratioP2
17606;SDS011;69222;52.242;20.980;2023-07-02T00:00:40;19.58;;;14.30;;
17606;SDS011;69222;52.242;20.980;2023-07-02T00:03:10;23.02;;;13.73;;
17606;SDS011;69222;52.242;20.980;2023-07-02T00:05:38;19.42;;;14.07;;
17606;SDS011;69222;52.242;20.980;2023-07-02T00:08:06;20.77;;;14.23;;
17606;SDS011;69222;52.242;20.980;2023-07-02T00:10:34;25.65;;;15.23;;
17606;SDS011;69222;52.242;20.980;2023-07-02T00:13:03;19.88;;;14.10;;
17606;SDS011;69222;52.242;20.980;2023-07-02T00:15:30;22.85;;;14.13;;
17606;SDS011;69222;52.242;20.980;2023-07-02T00:17:58;19.40;;;15.20;;
17606;SDS011;69222;52.242;20.980;2023-07-02T00:20:28;16.48;;;12.93;;
17606;SDS011;69222;52.242;20.980;2023-07-02T00:23:01;17.10;;;14.07;;
17606;SDS011;69222;52.242;20.980;2023-07-02T00:25:29;18.50;;;14.57;;
17606;SDS011;69222;52.242;20.980;2023-07-02T00:27:57;18.50;;;15.27;;
17606;SDS011;69222;52.242;20.980;2023-07-02T00:30:26;19.35;;;13.90;;
17606;SDS011;69222;52.242;20.980;2023-07-02T00:32:54;18.40;;;14.73;;
17606;SDS011;69222;52.242;20.980;2023-07-02T00:35:22;19.80;;;14.93;;
17606;SDS011;69222;52.242;20.980;2023-07-02T00:37:51;20.00;;;15.45;;
17606;SDS011;69222;52.242;20.980;2023-07-02T00:40:20;20.38;;;14.77;;
17606;SDS011;69222;52.242;20.980;2023-07-02T00:42:48;19.17;;;14.52;;
17606;SDS011;69222;52.242;20.980;2023-07-02T00:45:16;16.85;;;14.15;;
17606;SDS011;69222;52.242;20.980;2023-07-02T00:47:44;20.58;;;15.25;;
17606;SDS011;69222;52.242;20.980;2023-07-02T00:50:12;17.40;;;13.93;;
17606;SDS011;69222;52.242;20.980;2023-07-02T00:52:41;17.10;;;14.20;;
17606;SDS011;69222;52.242;20.980;2023-07-02T00:55:10;17.92;;;14.95;;
17606;SDS011;69222;52.242;20.980;2023-07-02T00:57:38;17.02;;;14.10;;
17606;SDS011;69222;52.242;20.980;2023-07-02T01:00:07;18.33;;;15.20;;
17606;SDS011;69222;52.242;20.980;2023-07-02T01:02:36;19.20;;;14.35;;
17606;SDS011;69222;52.242;20.980;2023-07-02T01:05:05;19.13;;;15.18;;
17606;SDS011;69222;52.242;20.980;2023-07-02T01:07:33;17.95;;;15.02;;
17606;SDS011;69222;52.242;20.980;2023-07-02T01:10:01;20.55;;;16.15;;
17606;SDS011;69222;52.242;20.980;2023-07-02T01:12:30;20.08;;;15.25;;
17606;SDS011;69222;52.242;20.980;2023-07-02T01:14:59;19.95;;;14.57;;
17606;SDS011;69222;52.242;20.980;2023-07-02T01:17:30;24.55;;;16.58;;
17606;SDS011;69222;52.242;20.980;2023-07-02T01:20:08;18.73;;;16.02;;
17606;SDS011;69222;52.242;20.980;2023-07-02T01:22:38;17.40;;;15.27;;
17606;SDS011;69222;52.242;20.980;2023-07-02T01:25:06;17.95;;;14.48;;
17606;SDS011;69222;52.242;20.980;2023-07-02T01:27:36;19.30;;;15.57;;
17606;SDS011;69222;52.242;20.980;2023-07-02T01:30:04;17.35;;;14.57;;
17606;SDS011;69222;52.242;20.980;2023-07-02T01:32:34;17.63;;;14.95;;
17606;SDS011;69222;52.242;20.980;2023-07-02T01:35:02;19.88;;;14.80;;
17606;SDS011;69222;52.242;20.980;2023-07-02T01:37:32;18.83;;;14.65;;
17606;SDS011;69222;52.242;20.980;2023-07-02T01:40:04;17.88;;;15.52;;
17606;SDS011;69222;52.242;20.980;2023-07-02T01:42:34;17.75;;;14.45;;
17606;SDS011;69222;52.242;20.980;2023-07-02T01:45:02;18.77;;;15.15;;
17606;SDS011;69222;52.242;20.980;2023-07-02T01:47:31;19.65;;;15.10;;
17606;SDS011;69222;52.242;20.980;2023-07-02T01:49:59;19.77;;;15.43;;
17606;SDS011;69222;52.242;20.980;2023-07-02T01:52:27;19.38;;;15.10;;
17606;SDS011;69222;52.242;20.980;2023-07-02T01:55:01;19.17;;;15.65;;
17606;SDS011;69222;52.242;20.980;2023-07-02T01:57:30;19.73;;;16.08;;
17606;SDS011;69222;52.242;20.980;2023-07-02T01:59:58;17.23;;;14.38;;
17606;SDS011;69222;52.242;20.980;2023-07-02T02:02:26;20.60;;;15.43;;
17606;SDS011;69222;52.242;20.980;2023-07-02T02:04:54;17.98;;;15.25;;
17606;SDS011;69222;52.242;20.980;2023-07-02T02:07:23;19.33;;;14.52;;
17606;SDS011;69222;52.242;20.980;2023-07-02T02:09:52;19.83;;;15.07;;
17606;SDS011;69222;52.242;20.980;2023-07-02T02:12:22;16.70;;;14.73;;
17606;SDS011;69222;52.242;20.980;2023-07-02T02:14:50;17.10;;;14.85;;
17606;SDS011;69222;52.242;20.980;2023-07-02T02:17:17;17.42;;;14.07;;
17606;SDS011;69222;52.242;20.980;2023-07-02T02:19:46;18.48;;;14.48;;
17606;SDS011;69222;52.242;20.980;2023-07-02T02:22:13;16.40;;;14.45;;
17606;SDS011;69222;52.242;20.980;2023-07-02T02:24:42;16.85;;;14.50;;
17606;SDS011;69222;52.242;20.980;2023-07-02T02:27:09;19.23;;;15.10;;
17606;SDS011;69222;52.242;20.980;2023-07-02T02:29:40;17.20;;;14.27;;
17606;SDS011;69222;52.242;20.980;2023-07-02T02:32:08;18.90;;;13.00;;
17606;SDS011;69222;52.242;20.980;2023-07-02T02:34:37;19.48;;;14.45;;
17606;SDS011;69222;52.242;20.980;2023-07-02T02:37:05;19.50;;;14.82;;
17606;SDS011;69222;52.242;20.980;2023-07-02T02:39:33;16.60;;;13.65;;
17606;SDS011;69222;52.242;20.980;2023-07-02T02:42:00;18.15;;;13.60;;
17606;SDS011;69222;52.242;20.980;2023-07-02T02:44:28;17.10;;;13.65;;
17606;SDS011;69222;52.242;20.980;2023-07-02T02:47:00;18.20;;;13.68;;
17606;SDS011;69222;52.242;20.980;2023-07-02T02:49:28;16.75;;;13.85;;
17606;SDS011;69222;52.242;20.980;2023-07-02T02:51:56;18.65;;;14.38;;
17606;SDS011;69222;52.242;20.980;2023-07-02T02:54:24;16.35;;;12.88;;
17606;SDS011;69222;52.242;20.980;2023-07-02T02:56:52;16.27;;;13.30;;
17606;SDS011;69222;52.242;20.980;2023-07-02T02:59:20;16.17;;;13.40;;
17606;SDS011;69222;52.242;20.980;2023-07-02T03:01:48;18.15;;;13.50;;
17606;SDS011;69222;52.242;20.980;2023-07-02T03:04:19;19.60;;;13.73;;
17606;SDS011;69222;52.242;20.980;2023-07-02T03:06:51;16.17;;;13.45;;
17606;SDS011;69222;52.242;20.980;2023-07-02T03:09:20;16.70;;;12.32;;
17606;SDS011;69222;52.242;20.980;2023-07-02T03:11:48;16.63;;;12.55;;
17606;SDS011;69222;52.242;20.980;2023-07-02T03:14:16;16.67;;;12.68;;
17606;SDS011;69222;52.242;20.980;2023-07-02T03:16:44;17.38;;;12.88;;
17606;SDS011;69222;52.242;20.980;2023-07-02T03:19:13;15.07;;;12.77;;
17606;SDS011;69222;52.242;20.980;2023-07-02T03:21:44;14.40;;;12.07;;
17606;SDS011;69222;52.242;20.980;2023-07-02T03:24:12;21.20;;;13.25;;
17606;SDS011;69222;52.242;20.980;2023-07-02T03:26:40;14.02;;;11.77;;
17606;SDS011;69222;52.242;20.980;2023-07-02T03:29:08;15.55;;;12.02;;
17606;SDS011;69222;52.242;20.980;2023-07-02T03:31:37;12.55;;;11.20;;
17606;SDS011;69222;52.242;20.980;2023-07-02T03:34:06;15.10;;;11.43;;
17606;SDS011;69222;52.242;20.980;2023-07-02T03:36:38;13.93;;;11.40;;
17606;SDS011;69222;52.242;20.980;2023-07-02T03:39:07;15.10;;;11.77;;
17606;SDS011;69222;52.242;20.980;2023-07-02T03:41:36;15.32;;;11.00;;
17606;SDS011;69222;52.242;20.980;2023-07-02T03:44:04;14.27;;;11.73;;
17606;SDS011;69222;52.242;20.980;2023-07-02T03:46:32;13.68;;;11.23;;
17606;SDS011;69222;52.242;20.980;2023-07-02T03:49:01;13.80;;;11.43;;
17606;SDS011;69222;52.242;20.980;2023-07-02T03:51:30;12.43;;;10.95;;
17606;SDS011;69222;52.242;20.980;2023-07-02T03:53:58;13.32;;;11.65;;
17606;SDS011;69222;52.242;20.980;2023-07-02T03:56:28;12.98;;;10.32;;
17606;SDS011;69222;52.242;20.980;2023-07-02T03:58:56;12.60;;;10.90;;
17606;SDS011;69222;52.242;20.980;2023-07-02T04:01:24;20.02;;;11.77;;
17606;SDS011;69222;52.242;20.980;2023-07-02T04:03:52;14.00;;;10.95;;
17606;SDS011;69222;52.242;20.980;2023-07-02T04:06:21;13.10;;;10.18;;
17606;SDS011;69222;52.242;20.980;2023-07-02T04:08:50;12.32;;;10.32;;
17606;SDS011;69222;52.242;20.980;2023-07-02T04:11:18;13.95;;;10.50;;
17606;SDS011;69222;52.242;20.980;2023-07-02T04:13:47;11.85;;;10.25;;
17606;SDS011;69222;52.242;20.980;2023-07-02T04:16:15;14.27;;;10.38;;
17606;SDS011;69222;52.242;20.980;2023-07-02T04:18:44;14.52;;;10.00;;
17606;SDS011;69222;52.242;20.980;2023-07-02T04:21:12;11.55;;;10.00;;
17606;SDS011;69222;52.242;20.980;2023-07-02T04:23:40;10.85;;;9.75;;
17606;SDS011;69222;52.242;20.980;2023-07-02T04:26:08;10.43;;;9.32;;
17606;SDS011;69222;52.242;20.980;2023-07-02T04:28:58;13.43;;;10.40;;
17606;SDS011;69222;52.242;20.980;2023-07-02T04:31:26;10.00;;;8.85;;
17606;SDS011;69222;52.242;20.980;2023-07-02T04:33:54;11.75;;;9.88;;
17606;SDS011;69222;52.242;20.980;2023-07-02T04:36:22;20.05;;;10.82;;
17606;SDS011;69222;52.242;20.980;2023-07-02T04:38:50;11.43;;;9.57;;
17606;SDS011;69222;52.242;20.980;2023-07-02T04:41:18;10.63;;;9.07;;
17606;SDS011;69222;52.242;20.980;2023-07-02T04:43:46;11.35;;;10.00;;
17606;SDS011;69222;52.242;20.980;2023-07-02T04:46:16;11.43;;;9.27;;
17606;SDS011;69222;52.242;20.980;2023-07-02T04:48:44;13.57;;;9.95;;
17606;SDS011;69222;52.242;20.980;2023-07-02T04:51:13;10.77;;;9.23;;
17606;SDS011;69222;52.242;20.980;2023-07-02T04:53:42;11.70;;;8.85;;
17606;SDS011;69222;52.242;20.980;2023-07-02T04:56:10;10.50;;;9.05;;
17606;SDS011;69222;52.242;20.980;2023-07-02T04:58:38;11.30;;;8.60;;
17606;SDS011;69222;52.242;20.980;2023-07-02T05:01:06;12.15;;;8.45;;
17606;SDS011;69222;52.242;20.980;2023-07-02T05:03:36;10.23;;;8.55;;
17606;SDS011;69222;52.242;20.980;2023-07-02T05:06:05;10.73;;;8.50;;
17606;SDS011;69222;52.242;20.980;2023-07-02T05:08:33;9.25;;;8.23;;
17606;SDS011;69222;52.242;20.980;2023-07-02T05:11:03;9.77;;;8.10;;
17606;SDS011;69222;52.242;20.980;2023-07-02T05:13:31;10.27;;;7.82;;
17606;SDS011;69222;52.242;20.980;2023-07-02T05:15:59;8.80;;;7.90;;
17606;SDS011;69222;52.242;20.980;2023-07-02T05:18:27;16.13;;;7.38;;
17606;SDS011;69222;52.242;20.980;2023-07-02T05:20:56;9.50;;;7.15;;
17606;SDS011;69222;52.242;20.980;2023-07-02T05:23:24;8.63;;;7.10;;
17606;SDS011;69222;52.242;20.980;2023-07-02T05:25:52;8.32;;;6.78;;
17606;SDS011;69222;52.242;20.980;2023-07-02T05:28:20;8.32;;;6.68;;
17606;SDS011;69222;52.242;20.980;2023-07-02T05:30:48;10.10;;;6.68;;
17606;SDS011;69222;52.242;20.980;2023-07-02T05:33:17;10.95;;;6.43;;
17606;SDS011;69222;52.242;20.980;2023-07-02T05:35:45;8.63;;;6.85;;
17606;SDS011;69222;52.242;20.980;2023-07-02T05:38:16;7.35;;;5.95;;
17606;SDS011;69222;52.242;20.980;2023-07-02T05:40:45;9.43;;;6.00;;
17606;SDS011;69222;52.242;20.980;2023-07-02T05:43:13;7.20;;;6.30;;
17606;SDS011;69222;52.242;20.980;2023-07-02T05:45:41;8.73;;;5.90;;
17606;SDS011;69222;52.242;20.980;2023-07-02T05:48:09;8.82;;;6.30;;
17606;SDS011;69222;52.242;20.980;2023-07-02T05:50:37;6.47;;;5.30;;
17606;SDS011;69222;52.242;20.980;2023-07-02T05:53:05;8.60;;;6.20;;
17606;SDS011;69222;52.242;20.980;2023-07-02T05:55:37;8.27;;;5.95;;
17606;SDS011;69222;52.242;20.980;2023-07-02T05:58:05;10.38;;;6.38;;
17606;SDS011;69222;52.242;20.980;2023-07-02T06:00:33;11.63;;;6.07;;
17606;SDS011;69222;52.242;20.980;2023-07-02T06:03:01;8.20;;;5.97;;
17606;SDS011;69222;52.242;20.980;2023-07-02T06:05:30;7.43;;;6.15;;
17606;SDS011;69222;52.242;20.980;2023-07-02T06:07:58;9.63;;;6.13;;
17606;SDS011;69222;52.242;20.980;2023-07-02T06:10:26;6.90;;;6.22;;
17606;SDS011;69222;52.242;20.980;2023-07-02T06:12:55;8.68;;;6.30;;
17606;SDS011;69222;52.242;20.980;2023-07-02T06:15:23;6.53;;;5.80;;
17606;SDS011;69222;52.242;20.980;2023-07-02T06:17:51;8.57;;;6.57;;
17606;SDS011;69222;52.242;20.980;2023-07-02T06:20:19;8.57;;;5.95;;
17606;SDS011;69222;52.242;20.980;2023-07-02T06:22:47;8.82;;;5.90;;
17606;SDS011;69222;52.242;20.980;2023-07-02T06:25:15;8.10;;;6.40;;
17606;SDS011;69222;52.242;20.980;2023-07-02T06:27:44;6.95;;;6.25;;
17606;SDS011;69222;52.242;20.980;2023-07-02T06:30:13;10.32;;;6.40;;
17606;SDS011;69222;52.242;20.980;2023-07-02T06:32:41;7.80;;;5.97;;
17606;SDS011;69222;52.242;20.980;2023-07-02T06:35:09;9.27;;;5.80;;
17606;SDS011;69222;52.242;20.980;2023-07-02T06:37:39;8.95;;;6.20;;
17606;SDS011;69222;52.242;20.980;2023-07-02T06:40:07;6.70;;;6.10;;
17606;SDS011;69222;52.242;20.980;2023-07-02T06:42:35;8.60;;;6.20;;
17606;SDS011;69222;52.242;20.980;2023-07-02T06:45:04;7.82;;;5.60;;
17606;SDS011;69222;52.242;20.980;2023-07-02T06:47:34;8.43;;;6.15;;
17606;SDS011;69222;52.242;20.980;2023-07-02T06:50:02;8.50;;;6.50;;
17606;SDS011;69222;52.242;20.980;2023-07-02T06:52:30;8.27;;;6.25;;
17606;SDS011;69222;52.242;20.980;2023-07-02T06:54:58;9.82;;;5.90;;
17606;SDS011;69222;52.242;20.980;2023-07-02T06:57:26;7.10;;;6.35;;
17606;SDS011;69222;52.242;20.980;2023-07-02T06:59:57;10.23;;;5.95;;
17606;SDS011;69222;52.242;20.980;2023-07-02T07:02:26;7.93;;;6.13;;
17606;SDS011;69222;52.242;20.980;2023-07-02T07:04:56;9.10;;;5.63;;
17606;SDS011;69222;52.242;20.980;2023-07-02T07:07:24;6.78;;;5.25;;
17606;SDS011;69222;52.242;20.980;2023-07-02T07:09:52;6.53;;;5.18;;
17606;SDS011;69222;52.242;20.980;2023-07-02T07:12:20;8.38;;;5.40;;
17606;SDS011;69222;52.242;20.980;2023-07-02T07:14:48;9.13;;;5.68;;
17606;SDS011;69222;52.242;20.980;2023-07-02T07:17:17;6.75;;;5.13;;
17606;SDS011;69222;52.242;20.980;2023-07-02T07:19:45;7.95;;;5.18;;
17606;SDS011;69222;52.242;20.980;2023-07-02T07:22:14;10.90;;;4.90;;
17606;SDS011;69222;52.242;20.980;2023-07-02T07:24:43;12.30;;;4.60;;
17606;SDS011;69222;52.242;20.980;2023-07-02T07:27:11;7.63;;;4.97;;
17606;SDS011;69222;52.242;20.980;2023-07-02T07:29:39;5.88;;;4.40;;
17606;SDS011;69222;52.242;20.980;2023-07-02T07:32:07;5.03;;;4.20;;
17606;SDS011;69222;52.242;20.980;2023-07-02T07:34:35;4.78;;;4.18;;
17606;SDS011;69222;52.242;20.980;2023-07-02T07:37:04;7.47;;;4.32;;
17606;SDS011;69222;52.242;20.980;2023-07-02T07:39:35;6.78;;;4.68;;
17606;SDS011;69222;52.242;20.980;2023-07-02T07:42:04;6.22;;;4.45;;
17606;SDS011;69222;52.242;20.980;2023-07-02T07:44:32;7.63;;;4.72;;
17606;SDS011;69222;52.242;20.980;2023-07-02T07:47:01;5.20;;;4.07;;
17606;SDS011;69222;52.242;20.980;2023-07-02T07:49:29;4.65;;;3.40;;
17606;SDS011;69222;52.242;20.980;2023-07-02T07:51:57;4.68;;;4.20;;
17606;SDS011;69222;52.242;20.980;2023-07-02T07:54:25;4.38;;;3.38;;
17606;SDS011;69222;52.242;20.980;2023-07-02T07:56:55;5.70;;;3.47;;
17606;SDS011;69222;52.242;20.980;2023-07-02T07:59:23;4.85;;;3.80;;
17606;SDS011;69222;52.242;20.980;2023-07-02T08:01:51;4.40;;;3.63;;
17606;SDS011;69222;52.242;20.980;2023-07-02T08:04:19;4.25;;;3.85;;
17606;SDS011;69222;52.242;20.980;2023-07-02T08:06:47;6.90;;;4.43;;
17606;SDS011;69222;52.242;20.980;2023-07-02T08:09:15;5.43;;;4.28;;
17606;SDS011;69222;52.242;20.980;2023-07-02T08:11:43;6.95;;;4.40;;
17606;SDS011;69222;52.242;20.980;2023-07-02T08:14:12;6.90;;;3.80;;
17606;SDS011;69222;52.242;20.980;2023-07-02T08:16:41;6.47;;;3.83;;
17606;SDS011;69222;52.242;20.980;2023-07-02T08:19:08;5.15;;;3.75;;
17606;SDS011;69222;52.242;20.980;2023-07-02T08:21:36;5.70;;;3.40;;
17606;SDS011;69222;52.242;20.980;2023-07-02T08:24:05;7.75;;;3.50;;
17606;SDS011;69222;52.242;20.980;2023-07-02T08:26:33;4.70;;;3.25;;
17606;SDS011;69222;52.242;20.980;2023-07-02T08:29:01;5.10;;;3.88;;
17606;SDS011;69222;52.242;20.980;2023-07-02T08:31:31;3.70;;;3.40;;
17606;SDS011;69222;52.242;20.980;2023-07-02T08:33:59;4.28;;;3.63;;
17606;SDS011;69222;52.242;20.980;2023-07-02T08:36:27;4.65;;;3.40;;
17606;SDS011;69222;52.242;20.980;2023-07-02T08:38:55;4.20;;;3.80;;
17606;SDS011;69222;52.242;20.980;2023-07-02T08:41:23;5.20;;;3.53;;
17606;SDS011;69222;52.242;20.980;2023-07-02T08:43:54;4.78;;;3.55;;
17606;SDS011;69222;52.242;20.980;2023-07-02T08:46:23;3.90;;;3.50;;
17606;SDS011;69222;52.242;20.980;2023-07-02T08:48:52;3.80;;;3.40;;
17606;SDS011;69222;52.242;20.980;2023-07-02T08:51:20;5.63;;;3.28;;
17606;SDS011;69222;52.242;20.980;2023-07-02T08:53:49;4.85;;;3.65;;
17606;SDS011;69222;52.242;20.980;2023-07-02T08:56:17;3.60;;;3.25;;
17606;SDS011;69222;52.242;20.980;2023-07-02T08:58:45;3.80;;;3.40;;
17606;SDS011;69222;52.242;20.980;2023-07-02T09:01:13;3.40;;;3.10;;
17606;SDS011;69222;52.242;20.980;2023-07-02T09:03:42;5.55;;;3.20;;
17606;SDS011;69222;52.242;20.980;2023-07-02T09:06:11;2.92;;;2.63;;
17606;SDS011;69222;52.242;20.980;2023-07-02T09:08:40;3.00;;;2.75;;
17606;SDS011;69222;52.242;20.980;2023-07-02T09:11:08;4.18;;;3.20;;
17606;SDS011;69222;52.242;20.980;2023-07-02T09:13:44;4.00;;;3.60;;
17606;SDS011;69222;52.242;20.980;2023-07-02T09:16:23;3.67;;;3.38;;
17606;SDS011;69222;52.242;20.980;2023-07-02T09:18:58;3.55;;;3.17;;
17606;SDS011;69222;52.242;20.980;2023-07-02T09:21:37;4.40;;;3.35;;
17606;SDS011;69222;52.242;20.980;2023-07-02T09:24:13;3.55;;;3.25;;
17606;SDS011;69222;52.242;20.980;2023-07-02T09:26:42;3.38;;;3.00;;
17606;SDS011;69222;52.242;20.980;2023-07-02T09:29:11;4.05;;;3.72;;
17606;SDS011;69222;52.242;20.980;2023-07-02T09:31:43;3.70;;;3.03;;
17606;SDS011;69222;52.242;20.980;2023-07-02T09:34:33;3.60;;;3.30;;
17606;SDS011;69222;52.242;20.980;2023-07-02T09:37:04;3.35;;;3.05;;
17606;SDS011;69222;52.242;20.980;2023-07-02T09:39:34;3.58;;;3.28;;
17606;SDS011;69222;52.242;20.980;2023-07-02T09:42:05;3.15;;;2.80;;
17606;SDS011;69222;52.242;20.980;2023-07-02T09:44:34;4.40;;;4.00;;
17606;SDS011;69222;52.242;20.980;2023-07-02T09:47:04;3.42;;;3.13;;
17606;SDS011;69222;52.242;20.980;2023-07-02T09:49:33;3.38;;;3.08;;
17606;SDS011;69222;52.242;20.980;2023-07-02T09:52:02;3.08;;;2.78;;
17606;SDS011;69222;52.242;20.980;2023-07-02T09:54:33;3.20;;;2.78;;
17606;SDS011;69222;52.242;20.980;2023-07-02T09:57:01;3.70;;;2.85;;
17606;SDS011;69222;52.242;20.980;2023-07-02T09:59:30;3.13;;;2.10;;
17606;SDS011;69222;52.242;20.980;2023-07-02T10:01:58;2.60;;;2.40;;
17606;SDS011;69222;52.242;20.980;2023-07-02T10:04:27;4.70;;;2.38;;
17606;SDS011;69222;52.242;20.980;2023-07-02T10:06:56;3.63;;;2.38;;
17606;SDS011;69222;52.242;20.980;2023-07-02T10:09:36;2.40;;;2.20;;
17606;SDS011;69222;52.242;20.980;2023-07-02T10:12:14;3.35;;;2.13;;
17606;SDS011;69222;52.242;20.980;2023-07-02T10:14:44;2.15;;;1.63;;
17606;SDS011;69222;52.242;20.980;2023-07-02T10:17:23;2.95;;;1.92;;
17606;SDS011;69222;52.242;20.980;2023-07-02T10:19:56;2.03;;;1.40;;
17606;SDS011;69222;52.242;20.980;2023-07-02T10:22:25;3.17;;;1.70;;
17606;SDS011;69222;52.242;20.980;2023-07-02T10:24:56;1.65;;;1.52;;
17606;SDS011;69222;52.242;20.980;2023-07-02T10:27:33;1.55;;;1.45;;
17606;SDS011;69222;52.242;20.980;2023-07-02T10:30:03;2.10;;;1.48;;
17606;SDS011;69222;52.242;20.980;2023-07-02T10:32:32;2.92;;;1.58;;
17606;SDS011;69222;52.242;20.980;2023-07-02T10:35:02;2.35;;;1.50;;
17606;SDS011;69222;52.242;20.980;2023-07-02T10:37:41;2.88;;;1.90;;
17606;SDS011;69222;52.242;20.980;2023-07-02T10:40:11;2.40;;;1.65;;
17606;SDS011;69222;52.242;20.980;2023-07-02T10:42:46;1.40;;;1.30;;
17606;SDS011;69222;52.242;20.980;2023-07-02T10:45:15;2.15;;;1.75;;
17606;SDS011;69222;52.242;20.980;2023-07-02T10:47:44;1.77;;;1.42;;
17606;SDS011;69222;52.242;20.980;2023-07-02T10:50:15;2.03;;;1.55;;
17606;SDS011;69222;52.242;20.980;2023-07-02T10:52:44;1.77;;;1.67;;
17606;SDS011;69222;52.242;20.980;2023-07-02T10:55:20;3.58;;;1.88;;
17606;SDS011;69222;52.242;20.980;2023-07-02T10:57:49;2.67;;;1.92;;
17606;SDS011;69222;52.242;20.980;2023-07-02T11:00:29;2.53;;;1.70;;
17606;SDS011;69222;52.242;20.980;2023-07-02T11:02:57;3.03;;;1.55;;
17606;SDS011;69222;52.242;20.980;2023-07-02T11:05:26;1.75;;;1.65;;
17606;SDS011;69222;52.242;20.980;2023-07-02T11:08:05;3.17;;;1.60;;
17606;SDS011;69222;52.242;20.980;2023-07-02T11:10:37;5.25;;;2.00;;
17606;SDS011;69222;52.242;20.980;2023-07-02T11:13:11;6.30;;;2.20;;
17606;SDS011;69222;52.242;20.980;2023-07-02T11:15:39;1.92;;;1.83;;
17606;SDS011;69222;52.242;20.980;2023-07-02T11:18:09;10.68;;;5.30;;
17606;SDS011;69222;52.242;20.980;2023-07-02T11:20:38;3.63;;;2.55;;
17606;SDS011;69222;52.242;20.980;2023-07-02T11:23:16;4.10;;;2.00;;
17606;SDS011;69222;52.242;20.980;2023-07-02T11:25:55;2.42;;;1.80;;
17606;SDS011;69222;52.242;20.980;2023-07-02T11:28:25;5.15;;;2.10;;
17606;SDS011;69222;52.242;20.980;2023-07-02T11:30:55;1.83;;;1.52;;
17606;SDS011;69222;52.242;20.980;2023-07-02T11:33:32;5.63;;;2.00;;
17606;SDS011;69222;52.242;20.980;2023-07-02T11:36:00;3.30;;;2.33;;
17606;SDS011;69222;52.242;20.980;2023-07-02T11:38:29;2.33;;;1.88;;
17606;SDS011;69222;52.242;20.980;2023-07-02T11:40:58;3.75;;;1.88;;
17606;SDS011;69222;52.242;20.980;2023-07-02T11:43:26;2.35;;;1.90;;
17606;SDS011;69222;52.242;20.980;2023-07-02T11:45:54;3.08;;;2.25;;
17606;SDS011;69222;52.242;20.980;2023-07-02T11:48:22;2.50;;;2.30;;
17606;SDS011;69222;52.242;20.980;2023-07-02T11:50:50;1.95;;;1.85;;
17606;SDS011;69222;52.242;20.980;2023-07-02T11:53:19;4.43;;;2.20;;
17606;SDS011;69222;52.242;20.980;2023-07-02T11:55:46;2.42;;;1.90;;
17606;SDS011;69222;52.242;20.980;2023-07-02T11:58:16;2.42;;;2.20;;
17606;SDS011;69222;52.242;20.980;2023-07-02T12:00:44;1.90;;;1.80;;
17606;SDS011;69222;52.242;20.980;2023-07-02T12:03:12;3.58;;;2.35;;
17606;SDS011;69222;52.242;20.980;2023-07-02T12:05:40;2.70;;;2.47;;
17606;SDS011;69222;52.242;20.980;2023-07-02T12:08:08;3.08;;;2.55;;
17606;SDS011;69222;52.242;20.980;2023-07-02T12:10:36;3.00;;;2.70;;
17606;SDS011;69222;52.242;20.980;2023-07-02T12:13:04;3.05;;;2.53;;
17606;SDS011;69222;52.242;20.980;2023-07-02T12:15:34;2.92;;;2.72;;
17606;SDS011;69222;52.242;20.980;2023-07-02T12:18:01;2.78;;;2.20;;
17606;SDS011;69222;52.242;20.980;2023-07-02T12:20:30;2.28;;;1.90;;
17606;SDS011;69222;52.242;20.980;2023-07-02T12:22:58;3.33;;;1.95;;
17606;SDS011;69222;52.242;20.980;2023-07-02T12:25:26;2.30;;;2.00;;
17606;SDS011;69222;52.242;20.980;2023-07-02T12:27:55;2.97;;;1.92;;
17606;SDS011;69222;52.242;20.980;2023-07-02T12:30:22;2.50;;;2.30;;
17606;SDS011;69222;52.242;20.980;2023-07-02T12:32:52;2.97;;;2.17;;
17606;SDS011;69222;52.242;20.980;2023-07-02T12:35:20;1.83;;;1.70;;
17606;SDS011;69222;52.242;20.980;2023-07-02T12:37:49;2.30;;;2.10;;
17606;SDS011;69222;52.242;20.980;2023-07-02T12:40:18;3.33;;;1.83;;
17606;SDS011;69222;52.242;20.980;2023-07-02T12:42:47;1.80;;;1.70;;
17606;SDS011;69222;52.242;20.980;2023-07-02T12:45:17;1.95;;;1.58;;
17606;SDS011;69222;52.242;20.980;2023-07-02T12:47:47;2.67;;;1.52;;
17606;SDS011;69222;52.242;20.980;2023-07-02T12:50:17;1.83;;;1.48;;
17606;SDS011;69222;52.242;20.980;2023-07-02T12:52:46;1.83;;;1.45;;
17606;SDS011;69222;52.242;20.980;2023-07-02T12:55:14;2.70;;;1.70;;
17606;SDS011;69222;52.242;20.980;2023-07-02T12:57:42;1.85;;;1.45;;
17606;SDS011;69222;52.242;20.980;2023-07-02T13:00:10;2.53;;;1.17;;
17606;SDS011;69222;52.242;20.980;2023-07-02T13:02:39;1.40;;;1.30;;
17606;SDS011;69222;52.242;20.980;2023-07-02T13:05:28;2.58;;;1.77;;
17606;SDS011;69222;52.242;20.980;2023-07-02T13:07:56;1.23;;;1.13;;
17606;SDS011;69222;52.242;20.980;2023-07-02T13:10:24;4.60;;;1.35;;
17606;SDS011;69222;52.242;20.980;2023-07-02T13:12:52;2.42;;;1.30;;
17606;SDS011;69222;52.242;20.980;2023-07-02T13:15:26;1.73;;;1.33;;
17606;SDS011;69222;52.242;20.980;2023-07-02T13:17:54;1.55;;;1.45;;
17606;SDS011;69222;52.242;20.980;2023-07-02T13:20:23;4.50;;;1.73;;
17606;SDS011;69222;52.242;20.980;2023-07-02T13:22:52;2.88;;;1.30;;
17606;SDS011;69222;52.242;20.980;2023-07-02T13:25:20;3.97;;;1.60;;
17606;SDS011;69222;52.242;20.980;2023-07-02T13:27:48;2.00;;;1.10;;
17606;SDS011;69222;52.242;20.980;2023-07-02T13:30:16;1.48;;;1.27;;
17606;SDS011;69222;52.242;20.980;2023-07-02T13:32:44;2.88;;;1.52;;
17606;SDS011;69222;52.242;20.980;2023-07-02T13:35:12;1.50;;;1.40;;
17606;SDS011;69222;52.242;20.980;2023-07-02T13:37:40;1.98;;;1.55;;
17606;SDS011;69222;52.242;20.980;2023-07-02T13:40:10;1.40;;;1.30;;
17606;SDS011;69222;52.242;20.980;2023-07-02T13:42:41;2.08;;;1.30;;
17606;SDS011;69222;52.242;20.980;2023-07-02T13:45:10;2.67;;;1.35;;
17606;SDS011;69222;52.242;20.980;2023-07-02T13:47:38;8.82;;;2.70;;
17606;SDS011;69222;52.242;20.980;2023-07-02T13:50:07;2.03;;;1.20;;
17606;SDS011;69222;52.242;20.980;2023-07-02T13:52:35;2.30;;;1.50;;
17606;SDS011;69222;52.242;20.980;2023-07-02T13:55:03;1.58;;;1.42;;
17606;SDS011;69222;52.242;20.980;2023-07-02T13:57:33;2.72;;;1.27;;
17606;SDS011;69222;52.242;20.980;2023-07-02T14:00:04;1.35;;;1.00;;
17606;SDS011;69222;52.242;20.980;2023-07-02T14:02:34;2.22;;;1.35;;
17606;SDS011;69222;52.242;20.980;2023-07-02T14:05:02;1.40;;;1.08;;
17606;SDS011;69222;52.242;20.980;2023-07-02T14:07:31;2.42;;;1.15;;
17606;SDS011;69222;52.242;20.980;2023-07-02T14:09:59;1.35;;;1.08;;
17606;SDS011;69222;52.242;20.980;2023-07-02T14:12:27;1.38;;;1.27;;
17606;SDS011;69222;52.242;20.980;2023-07-02T14:14:55;2.20;;;1.02;;
17606;SDS011;69222;52.242;20.980;2023-07-02T14:17:24;1.20;;;1.10;;
17606;SDS011;69222;52.242;20.980;2023-07-02T14:19:53;3.17;;;1.20;;
17606;SDS011;69222;52.242;20.980;2023-07-02T14:22:20;1.35;;;1.25;;
17606;SDS011;69222;52.242;20.980;2023-07-02T14:24:48;1.73;;;1.40;;
17606;SDS011;69222;52.242;20.980;2023-07-02T14:27:16;1.38;;;1.27;;
17606;SDS011;69222;52.242;20.980;2023-07-02T14:29:45;3.42;;;1.15;;
17606;SDS011;69222;52.242;20.980;2023-07-02T14:32:13;1.40;;;1.30;;
17606;SDS011;69222;52.242;20.980;2023-07-02T14:34:43;1.10;;;1.10;;
17606;SDS011;69222;52.242;20.980;2023-07-02T14:37:11;1.83;;;1.38;;